Time;durP1;ratioP1;P1;durP2;ratioP2;P2;SDS_P1;SDS_P2;PMS_P1;PMS_P2;Temp;Humidity;BMP_temperature;BMP_pressure;BME280_temperature;BME280_humidity;BME280_pressure;Samples;Min_cycle;Max_cycle;Signal;HPM_P1;HPM_P2
2022/01/21 00:00:55;;;;;;;18.88;7.90;;;;;;;;;;6274797;22;20006;-92
2022/01/21 00:03:21;;;;;;;20.40;6.82;;;;;;;;;;6278291;22;20419;-90
2022/01/21 00:05:46;;;;;;;20.60;7.22;;;;;;;;;;6284368;22;20066;-93
2022/01/21 00:08:12;;;;;;;19.70;7.30;;;;;;;;;;6283942;22;20004;-90
2022/01/21 00:10:37;;;;;;;14.27;6.65;;;;;;;;;;6283518;22;20497;-91
2022/01/21 00:13:13;;;;;;;15.38;6.53;;;;;;;;;;6298193;22;20014;-91
2022/01/21 00:15:38;;;;;;;13.45;6.57;;;;;;;;;;6275905;22;20008;-87
2022/01/21 00:18:04;;;;;;;22.60;7.65;;;;;;;;;;6299231;22;20060;-86
2022/01/21 00:31:28;;;;;;;21.25;8.70;;;;;;;;;;6305604;22;20003;-83
2022/01/21 00:33:53;;;;;;;14.90;7.10;;;;;;;;;;6304403;22;20035;-88
2022/01/21 00:36:19;;;;;;;19.10;8.77;;;;;;;;;;6304554;22;19996;-87
2022/01/21 00:38:44;;;;;;;25.05;9.20;;;;;;;;;;6290323;22;20008;-91
2022/01/21 00:41:11;;;;;;;20.23;7.97;;;;;;;;;;6279912;22;20004;-92
2022/01/21 00:43:44;;;;;;;22.10;8.45;;;;;;;;;;6279303;22;20000;-91
2022/01/21 00:46:10;;;;;;;24.17;8.52;;;;;;;;;;6281239;22;20411;-92
2022/01/21 00:48:36;;;;;;;20.77;7.00;;;;;;;;;;6256041;22;20000;-92
2022/01/21 00:51:01;;;;;;;18.23;7.93;;;;;;;;;;6257752;22;20061;-92
2022/01/21 00:53:27;;;;;;;21.98;8.32;;;;;;;;;;6269664;22;20043;-89
2022/01/21 00:55:52;;;;;;;16.98;7.13;;;;;;;;;;6304688;22;19991;-87
2022/01/21 00:58:18;;;;;;;14.50;6.70;;;;;;;;;;6304295;22;19995;-88
2022/01/21 01:00:43;;;;;;;17.05;6.47;;;;;;;;;;6304199;22;19996;-87
2022/01/21 01:03:09;;;;;;;14.55;6.13;;;;;;;;;;6279371;22;20003;-91
2022/01/21 01:05:34;;;;;;;15.50;6.82;;;;;;;;;;6278132;22;20011;-91
2022/01/21 01:08:01;;;;;;;16.23;6.25;;;;;;;;;;6275527;22;20027;-92
2022/01/21 01:10:44;;;;;;;15.90;6.05;;;;;;;;;;6276174;22;20003;-93
2022/01/21 01:21:21;;;;;;;10.55;5.25;;;;;;;;;;6274811;22;20434;-93
2022/01/21 01:29:35;;;;;;;10.40;5.28;;;;;;;;;;6213389;23;20505;-93
2022/01/21 01:32:00;;;;;;;10.38;5.28;;;;;;;;;;6249767;22;20011;-93
2022/01/21 01:34:25;;;;;;;11.13;4.75;;;;;;;;;;6248506;22;20011;-91
2022/01/21 01:36:57;;;;;;;9.20;4.65;;;;;;;;;;6275659;22;20004;-92
2022/01/21 01:39:36;;;;;;;11.13;5.13;;;;;;;;;;6275355;22;20028;-92
2022/01/21 01:49:55;;;;;;;9.90;4.47;;;;;;;;;;6274533;22;20014;-92
2022/01/21 01:52:20;;;;;;;7.93;4.10;;;;;;;;;;6276783;22;20028;-92
2022/01/21 01:54:48;;;;;;;9.50;4.30;;;;;;;;;;6274139;22;20006;-91
2022/01/21 01:57:14;;;;;;;11.15;4.55;;;;;;;;;;6274683;22;20014;-92
2022/01/21 01:59:39;;;;;;;7.82;4.03;;;;;;;;;;6275606;22;19996;-92
2022/01/21 02:02:09;;;;;;;9.70;4.43;;;;;;;;;;6275756;22;20411;-92
2022/01/21 02:04:35;;;;;;;11.20;4.50;;;;;;;;;;6273852;22;20008;-92
2022/01/21 02:07:01;;;;;;;10.68;4.93;;;;;;;;;;6249610;22;20031;-93
2022/01/21 02:09:27;;;;;;;9.80;4.90;;;;;;;;;;6277042;22;19999;-92
2022/01/21 02:11:53;;;;;;;9.27;4.60;;;;;;;;;;6278034;22;20011;-92
2022/01/21 02:14:26;;;;;;;8.98;4.60;;;;;;;;;;6277946;22;20078;-92
2022/01/21 02:22:08;;;;;;;7.55;4.20;;;;;;;;;;6270423;22;20010;-90
2022/01/21 02:24:53;;;;;;;9.65;3.60;;;;;;;;;;6269880;22;20342;-90
2022/01/21 02:27:19;;;;;;;8.88;3.70;;;;;;;;;;6295319;22;19996;-93
2022/01/21 02:29:50;;;;;;;9.45;3.63;;;;;;;;;;6297026;22;19999;-90
2022/01/21 02:32:15;;;;;;;;;;;;;;;;;;6279811;22;20078;-93
2022/01/21 02:34:41;;;;;;;5.53;2.45;;;;;;;;;;6276180;22;20443;-93
2022/01/21 02:37:08;;;;;;;4.50;2.75;;;;;;;;;;6276175;22;20003;-91
2022/01/21 02:39:33;;;;;;;6.32;2.30;;;;;;;;;;6250627;22;20419;-91
2022/01/21 02:41:59;;;;;;;5.90;2.80;;;;;;;;;;6250638;22;20000;-93
2022/01/21 02:44:25;;;;;;;9.73;2.55;;;;;;;;;;6277400;22;20079;-92
2022/01/21 02:46:57;;;;;;;7.93;2.65;;;;;;;;;;6277563;22;20006;-93
2022/01/21 02:49:23;;;;;;;4.88;2.15;;;;;;;;;;6276266;22;20003;-91
2022/01/21 02:51:49;;;;;;;5.63;2.25;;;;;;;;;;6276667;22;20065;-92
2022/01/21 02:54:14;;;;;;;6.47;2.58;;;;;;;;;;6277378;22;19996;-92
2022/01/21 02:56:40;;;;;;;6.70;2.50;;;;;;;;;;6276785;22;20007;-92
2022/01/21 02:59:06;;;;;;;5.35;2.65;;;;;;;;;;6276973;22;20061;-91
2022/01/21 03:01:34;;;;;;;5.72;2.67;;;;;;;;;;6275940;22;20004;-91
2022/01/21 03:04:00;;;;;;;4.28;2.35;;;;;;;;;;6250821;22;20011;-93
2022/01/21 03:06:26;;;;;;;4.57;2.53;;;;;;;;;;6250277;22;20068;-94
2022/01/21 03:08:53;;;;;;;5.70;2.60;;;;;;;;;;6275991;22;20003;-90
2022/01/21 03:11:19;;;;;;;6.13;3.08;;;;;;;;;;6277327;22;20011;-92
2022/01/21 03:13:45;;;;;;;10.00;2.85;;;;;;;;;;6250430;22;19999;-92
2022/01/21 03:16:10;;;;;;;8.75;3.28;;;;;;;;;;6275831;22;20006;-92
2022/01/21 03:18:36;;;;;;;8.45;3.78;;;;;;;;;;6277373;22;20089;-92
2022/01/21 03:21:01;;;;;;;7.22;3.58;;;;;;;;;;6249912;22;20031;-92
2022/01/21 03:23:29;;;;;;;9.45;4.00;;;;;;;;;;6275621;22;20011;-91
2022/01/21 03:25:54;;;;;;;6.55;3.03;;;;;;;;;;6275770;22;20053;-93
2022/01/21 03:28:20;;;;;;;7.22;2.75;;;;;;;;;;6275781;22;20007;-91
2022/01/21 03:30:45;;;;;;;5.30;2.20;;;;;;;;;;6249817;22;20366;-92
2022/01/21 03:33:11;;;;;;;5.82;3.03;;;;;;;;;;6275586;22;20004;-92
2022/01/21 03:35:36;;;;;;;7.78;2.80;;;;;;;;;;6275305;22;20411;-92
2022/01/21 03:38:02;;;;;;;6.43;2.45;;;;;;;;;;6274891;22;20014;-92
2022/01/21 03:40:28;;;;;;;3.70;2.38;;;;;;;;;;6249910;22;20007;-92
2022/01/21 03:42:53;;;;;;;6.00;3.22;;;;;;;;;;6275384;22;19999;-91
2022/01/21 03:45:19;;;;;;;7.03;2.95;;;;;;;;;;6285890;22;20003;-92
2022/01/21 03:47:44;;;;;;;8.27;3.33;;;;;;;;;;6280635;22;20074;-94
2022/01/21 03:53:08;;;;;;;8.85;3.42;;;;;;;;;;6208868;22;20010;-93
2022/01/21 03:55:34;;;;;;;11.90;3.42;;;;;;;;;;6276751;22;20316;-94
2022/01/21 03:58:00;;;;;;;10.68;3.95;;;;;;;;;;6276166;22;20000;-92
2022/01/21 04:00:31;;;;;;;12.65;4.35;;;;;;;;;;6276023;22;20013;-92
2022/01/21 04:02:57;;;;;;;15.20;4.20;;;;;;;;;;6276583;22;20030;-90
2022/01/21 04:05:22;;;;;;;18.77;6.45;;;;;;;;;;6277626;22;20011;-90
2022/01/21 04:07:48;;;;;;;17.70;4.40;;;;;;;;;;6277074;22;20389;-92
2022/01/21 04:10:14;;;;;;;13.13;5.10;;;;;;;;;;6275319;22;20038;-90
2022/01/21 04:12:39;;;;;;;14.82;5.72;;;;;;;;;;6253378;22;20000;-90
2022/01/21 04:15:05;;;;;;;17.17;5.88;;;;;;;;;;6278681;22;20008;-91
2022/01/21 04:17:31;;;;;;;12.73;5.93;;;;;;;;;;6277378;22;20004;-93
2022/01/21 04:19:56;;;;;;;15.68;6.30;;;;;;;;;;6277518;22;20004;-89
2022/01/21 04:22:22;;;;;;;15.93;6.22;;;;;;;;;;6250909;22;20004;-88
2022/01/21 04:24:49;;;;;;;17.83;6.82;;;;;;;;;;6276407;22;20010;-92
2022/01/21 04:27:15;;;;;;;18.10;7.05;;;;;;;;;;6276061;22;20014;-92
2022/01/21 04:29:40;;;;;;;19.30;7.32;;;;;;;;;;6276587;22;20000;-91
2022/01/21 04:32:06;;;;;;;16.75;6.63;;;;;;;;;;6276787;22;20410;-92
2022/01/21 04:34:32;;;;;;;17.35;7.63;;;;;;;;;;6252395;22;20024;-90
2022/01/21 04:36:57;;;;;;;19.52;7.22;;;;;;;;;;6252619;22;20405;-91
2022/01/21 04:39:32;;;;;;;23.83;9.88;;;;;;;;;;6296691;22;20051;-87
2022/01/21 04:47:26;;;;;;;20.02;7.45;;;;;;;;;;6299542;22;20026;-89
2022/01/21 04:49:52;;;;;;;21.95;8.55;;;;;;;;;;6278537;22;20082;-89
2022/01/21 04:52:17;;;;;;;21.42;8.45;;;;;;;;;;6275063;22;20004;-90
2022/01/21 04:54:43;;;;;;;19.08;7.38;;;;;;;;;;6275895;22;20042;-91
2022/01/21 04:57:08;;;;;;;14.95;6.57;;;;;;;;;;6275288;22;20085;-91
2022/01/21 04:59:35;;;;;;;22.92;8.88;;;;;;;;;;6249468;22;20485;-89
2022/01/21 05:02:01;;;;;;;20.20;7.22;;;;;;;;;;6274665;22;20015;-93
2022/01/21 05:04:26;;;;;;;18.80;7.70;;;;;;;;;;6276163;22;20331;-90
2022/01/21 05:06:53;;;;;;;21.52;8.43;;;;;;;;;;6275478;22;20015;-92
2022/01/21 05:09:22;;;;;;;19.98;7.82;;;;;;;;;;6275733;22;20008;-92
2022/01/21 05:11:48;;;;;;;22.17;8.00;;;;;;;;;;6276111;22;20000;-89
2022/01/21 05:14:18;;;;;;;24.08;8.73;;;;;;;;;;6274337;22;20014;-93
2022/01/21 05:16:49;;;;;;;22.25;8.77;;;;;;;;;;6276170;22;20339;-80
2022/01/21 05:19:16;;;;;;;26.58;9.68;;;;;;;;;;6275028;22;20004;-84
2022/01/21 05:21:43;;;;;;;27.77;9.73;;;;;;;;;;6273840;22;19999;-86
2022/01/21 05:24:08;;;;;;;27.35;9.73;;;;;;;;;;6274264;22;20008;-87
2022/01/21 05:26:39;;;;;;;24.83;10.48;;;;;;;;;;6275182;22;20073;-89
2022/01/21 05:29:08;;;;;;;;;;;;;;;;;;6274729;22;20057;-86
2022/01/21 05:31:33;;;;;;;24.73;8.70;;;;;;;;;;6278929;22;20339;-87
2022/01/21 05:33:59;;;;;;;27.23;9.57;;;;;;;;;;6277930;22;20050;-87
2022/01/21 05:36:26;;;;;;;28.27;9.35;;;;;;;;;;6280097;22;20008;-85
2022/01/21 05:38:54;;;;;;;34.70;10.88;;;;;;;;;;6276758;22;20501;-86
2022/01/21 05:41:23;;;;;;;26.98;9.15;;;;;;;;;;6276807;22;20038;-86
2022/01/21 05:43:49;;;;;;;31.98;11.00;;;;;;;;;;6278000;22;19999;-87
2022/01/21 05:48:59;;;;;;;29.83;10.93;;;;;;;;;;6275467;22;20462;-87
2022/01/21 05:51:24;;;;;;;32.90;9.73;;;;;;;;;;6276207;22;20004;-87
2022/01/21 05:53:55;;;;;;;29.95;9.93;;;;;;;;;;6275505;22;20004;-86
2022/01/21 05:56:24;;;;;;;33.03;10.38;;;;;;;;;;6275667;22;20011;-84
2022/01/21 05:59:32;;;;;;;35.22;10.70;;;;;;;;;;6278839;22;20010;-80
2022/01/21 06:02:02;;;;;;;36.95;10.55;;;;;;;;;;6268955;22;20012;-84
2022/01/21 06:04:38;;;;;;;32.70;10.85;;;;;;;;;;6271578;22;20034;-81
2022/01/21 06:07:24;;;;;;;30.92;10.50;;;;;;;;;;6267180;22;20057;-81
2022/01/21 06:09:49;;;;;;;38.60;12.38;;;;;;;;;;6222137;22;20007;-77
2022/01/21 06:12:15;;;;;;;61.67;22.98;;;;;;;;;;6271726;22;20011;-79
2022/01/21 06:14:40;;;;;;;45.05;16.60;;;;;;;;;;6273047;22;20000;-77
2022/01/21 06:17:07;;;;;;;38.38;13.60;;;;;;;;;;6274437;22;20008;-80
2022/01/21 06:19:32;;;;;;;35.15;11.50;;;;;;;;;;6246228;22;20038;-80
2022/01/21 06:21:58;;;;;;;37.63;12.55;;;;;;;;;;6269449;22;20415;-78
2022/01/21 06:24:23;;;;;;;36.17;11.98;;;;;;;;;;6272748;22;20079;-80
2022/01/21 06:26:49;;;;;;;36.33;12.13;;;;;;;;;;6271163;22;20409;-78
2022/01/21 06:29:14;;;;;;;35.60;12.25;;;;;;;;;;6272083;22;20418;-76
2022/01/21 06:31:40;;;;;;;40.47;13.02;;;;;;;;;;6273159;22;20071;-78
2022/01/21 06:34:05;;;;;;;28.92;10.80;;;;;;;;;;6271233;22;20007;-77
2022/01/21 06:36:31;;;;;;;29.33;11.23;;;;;;;;;;6271088;22;20491;-78
2022/01/21 06:38:57;;;;;;;31.73;10.52;;;;;;;;;;6271856;22;20015;-77
2022/01/21 06:41:28;;;;;;;29.33;11.07;;;;;;;;;;6272576;22;20419;-79
2022/01/21 06:44:06;;;;;;;27.83;10.43;;;;;;;;;;6272846;22;20010;-82
2022/01/21 06:46:32;;;;;;;22.50;9.48;;;;;;;;;;6247513;22;20043;-78
2022/01/21 06:48:57;;;;;;;26.77;9.20;;;;;;;;;;6249286;22;20013;-79
2022/01/21 06:51:23;;;;;;;26.45;9.50;;;;;;;;;;6238813;22;20000;-83
2022/01/21 06:54:17;;;;;;;22.85;9.45;;;;;;;;;;6241858;22;20008;-81
2022/01/21 06:56:46;;;;;;;26.52;9.13;;;;;;;;;;6238146;23;20012;-82
2022/01/21 06:59:30;;;;;;;29.58;10.15;;;;;;;;;;6244357;22;20462;-81
2022/01/21 07:02:23;;;;;;;31.05;11.07;;;;;;;;;;6245592;23;20083;-80
2022/01/21 07:04:55;;;;;;;32.50;11.65;;;;;;;;;;6243535;23;20351;-84
2022/01/21 07:07:21;;;;;;;39.25;11.48;;;;;;;;;;6218993;23;20012;-81
2022/01/21 07:09:47;;;;;;;45.55;14.48;;;;;;;;;;6242895;23;20400;-81
2022/01/21 07:12:16;;;;;;;40.67;13.88;;;;;;;;;;6245007;23;20357;-83
2022/01/21 07:14:47;;;;;;;44.88;14.95;;;;;;;;;;6247723;23;20557;-82
2022/01/21 07:17:12;;;;;;;42.50;15.07;;;;;;;;;;6244736;22;20073;-83
2022/01/21 07:19:41;;;;;;;48.75;14.70;;;;;;;;;;6247893;22;20000;-83
2022/01/21 07:22:11;;;;;;;69.38;18.85;;;;;;;;;;6247081;23;20023;-80
2022/01/21 07:24:36;;;;;;;58.77;15.87;;;;;;;;;;6222116;23;20004;-80
2022/01/21 07:27:02;;;;;;;43.88;15.43;;;;;;;;;;6247844;22;20239;-78
2022/01/21 07:29:45;;;;;;;35.58;11.60;;;;;;;;;;6247562;22;20004;-84
2022/01/21 07:32:38;;;;;;;48.35;14.10;;;;;;;;;;6246315;22;20000;-84
2022/01/21 07:38:31;;;;;;;33.38;10.80;;;;;;;;;;6241524;22;20120;-80
2022/01/21 07:40:57;;;;;;;40.47;12.18;;;;;;;;;;6244001;22;20031;-81
2022/01/21 07:43:22;;;;;;;27.75;10.35;;;;;;;;;;6278235;22;20022;-81
2022/01/21 07:45:48;;;;;;;28.80;10.13;;;;;;;;;;6270845;22;20423;-79
2022/01/21 07:48:54;;;;;;;28.13;9.52;;;;;;;;;;6277860;22;20061;-81
2022/01/21 07:51:26;;;;;;;29.38;9.88;;;;;;;;;;6273271;22;20003;-81
2022/01/21 07:53:55;;;;;;;35.92;12.45;;;;;;;;;;6215606;22;20406;-78
2022/01/21 07:56:21;;;;;;;39.70;11.68;;;;;;;;;;6266030;22;20003;-79
2022/01/21 07:58:49;;;;;;;34.03;12.35;;;;;;;;;;6269071;22;20011;-78
2022/01/21 08:01:15;;;;;;;39.08;12.00;;;;;;;;;;6269236;22;20025;-79
2022/01/21 08:03:44;;;;;;;29.10;11.75;;;;;;;;;;6246511;22;20071;-78
2022/01/21 08:06:10;;;;;;;34.78;12.82;;;;;;;;;;6273534;22;20089;-75
2022/01/21 08:08:38;;;;;;;44.15;14.52;;;;;;;;;;6270296;22;20008;-80
2022/01/21 08:12:11;;;;;;;53.13;14.48;;;;;;;;;;6274404;22;20443;-85
2022/01/21 08:14:37;;;;;;;66.57;16.80;;;;;;;;;;6237997;22;20038;-82
2022/01/21 08:17:03;;;;;;;79.32;18.75;;;;;;;;;;6277104;22;20419;-79
2022/01/21 08:19:29;;;;;;;92.13;19.75;;;;;;;;;;6273360;22;20011;-84
2022/01/21 08:22:03;;;;;;;59.25;14.50;;;;;;;;;;6274663;22;20003;-80
2022/01/21 08:27:53;;;;;;;72.20;16.27;;;;;;;;;;6275133;22;20056;-83
2022/01/21 08:30:26;;;;;;;61.58;15.45;;;;;;;;;;6274780;22;20059;-83
2022/01/21 08:33:16;;;;;;;49.47;15.60;;;;;;;;;;6274558;22;20052;-85
2022/01/21 08:40:59;;;;;;;51.28;15.90;;;;;;;;;;6292875;22;20011;-80
2022/01/21 08:43:25;;;;;;;68.63;19.25;;;;;;;;;;6255514;22;20011;-80
2022/01/21 08:45:50;;;;;;;73.18;20.02;;;;;;;;;;6284225;22;20000;-81
2022/01/21 08:56:04;;;;;;;45.45;13.48;;;;;;;;;;6280905;22;20019;-80
2022/01/21 09:04:07;;;;;;;39.83;11.15;;;;;;;;;;6227467;22;20011;-78
2022/01/21 09:06:36;;;;;;;39.10;12.05;;;;;;;;;;6249593;22;20004;-79
2022/01/21 09:09:02;;;;;;;33.45;11.02;;;;;;;;;;6278612;22;20002;-79
2022/01/21 09:11:28;;;;;;;41.35;11.32;;;;;;;;;;6268962;22;20086;-81
2022/01/21 09:14:04;;;;;;;42.53;11.38;;;;;;;;;;6227276;22;20008;-79
2022/01/21 09:16:30;;;;;;;34.58;10.52;;;;;;;;;;6249906;22;20046;-80
2022/01/21 09:19:14;;;;;;;28.20;10.43;;;;;;;;;;6255665;22;20004;-80
2022/01/21 09:21:42;;;;;;;31.98;9.23;;;;;;;;;;6231592;22;20014;-82
2022/01/21 09:24:08;;;;;;;32.92;9.38;;;;;;;;;;6274625;22;20011;-79
2022/01/21 09:26:34;;;;;;;36.63;10.15;;;;;;;;;;6245117;22;20407;-77
2022/01/21 09:29:03;;;;;;;44.53;11.48;;;;;;;;;;6245831;22;20010;-78
2022/01/21 09:31:37;;;;;;;36.55;10.85;;;;;;;;;;6273375;22;20000;-77
2022/01/21 09:34:05;;;;;;;37.28;11.98;;;;;;;;;;6268093;22;20008;-78
2022/01/21 09:36:30;;;;;;;24.50;8.68;;;;;;;;;;6248714;22;20087;-79
2022/01/21 09:38:56;;;;;;;30.98;9.68;;;;;;;;;;6282056;22;20007;-79
2022/01/21 09:41:21;;;;;;;26.73;8.85;;;;;;;;;;6286266;22;20008;-79
2022/01/21 09:43:48;;;;;;;36.47;11.20;;;;;;;;;;6281535;22;20071;-81
2022/01/21 09:46:35;;;;;;;31.65;8.35;;;;;;;;;;6251306;22;20004;-80
2022/01/21 09:52:23;;;;;;;38.38;10.13;;;;;;;;;;6290278;22;20022;-81
2022/01/21 09:54:54;;;;;;;28.65;9.82;;;;;;;;;;6258645;22;20008;-80
2022/01/21 09:57:22;;;;;;;31.58;9.70;;;;;;;;;;6261088;22;20010;-80
2022/01/21 09:59:51;;;;;;;30.83;8.40;;;;;;;;;;6275684;22;20063;-82
2022/01/21 10:02:29;;;;;;;34.25;10.30;;;;;;;;;;6255894;22;20007;-79
2022/01/21 10:04:57;;;;;;;29.58;8.52;;;;;;;;;;6273020;22;20018;-76
2022/01/21 10:07:22;;;;;;;30.17;8.35;;;;;;;;;;6214709;22;20012;-76
2022/01/21 10:09:48;;;;;;;31.17;9.50;;;;;;;;;;6240798;22;20004;-75
2022/01/21 10:12:14;;;;;;;30.73;9.43;;;;;;;;;;6268745;22;20007;-75
2022/01/21 10:14:41;;;;;;;26.13;8.13;;;;;;;;;;6267187;22;20000;-74
2022/01/21 10:17:16;;;;;;;25.55;7.72;;;;;;;;;;6242627;22;20003;-79
2022/01/21 10:19:45;;;;;;;36.00;10.43;;;;;;;;;;6247290;22;20004;-75
2022/01/21 10:22:19;;;;;;;34.30;9.43;;;;;;;;;;6277900;22;20083;-78
2022/01/21 10:25:01;;;;;;;20.00;7.10;;;;;;;;;;6250258;22;20087;-77
2022/01/21 10:27:35;;;;;;;33.45;11.10;;;;;;;;;;6273715;22;20007;-80
2022/01/21 10:30:19;;;;;;;29.35;9.25;;;;;;;;;;6280170;22;20011;-83
2022/01/21 10:32:45;;;;;;;27.08;8.68;;;;;;;;;;6276573;22;20342;-79
2022/01/21 10:35:21;;;;;;;31.50;10.43;;;;;;;;;;6280500;22;20010;-79
2022/01/21 10:37:48;;;;;;;16.98;6.55;;;;;;;;;;6279171;22;20035;-79
2022/01/21 10:40:15;;;;;;;20.70;6.85;;;;;;;;;;6278049;22;20004;-79
2022/01/21 10:42:45;;;;;;;13.70;5.53;;;;;;;;;;6274555;22;20003;-80
2022/01/21 10:49:01;;;;;;;27.60;7.68;;;;;;;;;;6223572;22;20084;-85
2022/01/21 10:54:28;;;;;;;9.55;4.47;;;;;;;;;;6280821;22;20022;-82
2022/01/21 10:57:36;;;;;;;26.15;8.88;;;;;;;;;;6283536;22;20031;-78
2022/01/21 11:00:06;;;;;;;23.17;7.72;;;;;;;;;;6210139;22;22014;-80
2022/01/21 11:05:03;;;;;;;19.55;6.05;;;;;;;;;;6278204;22;20073;-88
2022/01/21 11:07:51;;;;;;;32.03;9.48;;;;;;;;;;6280861;22;20011;-84
2022/01/21 11:10:37;;;;;;;22.13;8.57;;;;;;;;;;6287491;22;20007;-81
2022/01/21 11:13:15;;;;;;;26.13;7.50;;;;;;;;;;6277180;22;20004;-84
2022/01/21 11:15:57;;;;;;;29.00;8.60;;;;;;;;;;6262461;22;20366;-83
2022/01/21 11:18:54;;;;;;;19.08;6.85;;;;;;;;;;6282210;22;20013;-83
2022/01/21 11:21:21;;;;;;;38.10;10.60;;;;;;;;;;6282980;22;20000;-85
2022/01/21 11:23:46;;;;;;;20.20;6.68;;;;;;;;;;6284060;22;20068;-82
2022/01/21 11:26:15;;;;;;;16.65;6.15;;;;;;;;;;6251289;22;19999;-83
2022/01/21 11:29:01;;;;;;;22.90;8.93;;;;;;;;;;6288574;22;20027;-83
2022/01/21 11:31:28;;;;;;;34.58;10.52;;;;;;;;;;6252260;22;21067;-80
2022/01/21 11:33:53;;;;;;;25.67;8.50;;;;;;;;;;6275576;22;20007;-80
2022/01/21 11:36:18;;;;;;;29.95;9.05;;;;;;;;;;6275503;22;20071;-80
2022/01/21 11:38:45;;;;;;;30.75;8.93;;;;;;;;;;6274062;22;20332;-79
2022/01/21 11:41:13;;;;;;;31.83;10.52;;;;;;;;;;6246443;22;20004;-79
2022/01/21 11:43:45;;;;;;;37.05;11.38;;;;;;;;;;6274176;22;20003;-81
2022/01/21 11:46:25;;;;;;;28.17;8.38;;;;;;;;;;6274178;22;20061;-84
2022/01/21 11:48:53;;;;;;;36.40;9.25;;;;;;;;;;6253396;22;20427;-83
2022/01/21 11:51:32;;;;;;;33.50;9.15;;;;;;;;;;6278933;22;19996;-84
2022/01/21 11:54:06;;;;;;;32.33;10.38;;;;;;;;;;6282455;22;20114;-84
2022/01/21 11:56:36;;;;;;;47.08;12.40;;;;;;;;;;6280171;22;20439;-84
2022/01/21 11:59:06;;;;;;;46.88;12.85;;;;;;;;;;6276027;22;20014;-84
2022/01/21 12:01:39;;;;;;;85.03;16.05;;;;;;;;;;6274055;22;20390;-83
2022/01/21 12:04:05;;;;;;;124.05;22.45;;;;;;;;;;6274282;22;20046;-83
2022/01/21 12:06:34;;;;;;;111.20;22.90;;;;;;;;;;6220691;22;20011;-83
2022/01/21 12:09:02;;;;;;;74.45;19.15;;;;;;;;;;6272391;22;20166;-83
2022/01/21 12:11:36;;;;;;;78.13;21.35;;;;;;;;;;6274382;22;20010;-84
2022/01/21 12:14:33;;;;;;;59.88;19.63;;;;;;;;;;6274267;22;19996;-83
2022/01/21 12:17:12;;;;;;;34.15;10.82;;;;;;;;;;6273538;22;20034;-84
2022/01/21 12:19:38;;;;;;;43.13;14.93;;;;;;;;;;6275619;22;20007;-83
2022/01/21 12:22:14;;;;;;;45.60;14.45;;;;;;;;;;6247680;22;20393;-83
2022/01/21 12:24:51;;;;;;;36.03;12.05;;;;;;;;;;6273259;22;20021;-81
2022/01/21 12:27:17;;;;;;;44.65;15.63;;;;;;;;;;6248918;22;20422;-83
2022/01/21 12:29:43;;;;;;;52.83;18.45;;;;;;;;;;6275909;22;20065;-83
2022/01/21 12:35:07;;;;;;;24.20;9.60;;;;;;;;;;6254723;22;20010;-83
2022/01/21 12:40:36;;;;;;;24.20;9.85;;;;;;;;;;6253534;22;20346;-82
2022/01/21 12:43:36;;;;;;;35.03;9.95;;;;;;;;;;6272640;22;20000;-82
2022/01/21 12:46:06;;;;;;;24.13;9.70;;;;;;;;;;6274198;22;20030;-83
2022/01/21 12:48:34;;;;;;;19.90;7.73;;;;;;;;;;6272348;22;20038;-83
2022/01/21 12:52:08;;;;;;;21.90;8.13;;;;;;;;;;6248821;22;20027;-83
2022/01/21 12:56:41;;;;;;;22.25;8.90;;;;;;;;;;6272650;22;20458;-83
2022/01/21 12:59:07;;;;;;;19.60;7.32;;;;;;;;;;6272922;22;20011;-83
2022/01/21 13:01:37;;;;;;;25.35;9.80;;;;;;;;;;6248659;22;20057;-83
2022/01/21 13:04:06;;;;;;;20.58;7.68;;;;;;;;;;6274009;22;20011;-84
2022/01/21 13:06:42;;;;;;;19.77;8.23;;;;;;;;;;6249514;22;19999;-84
2022/01/21 13:09:13;;;;;;;33.80;10.15;;;;;;;;;;6248657;22;20058;-82
2022/01/21 13:11:42;;;;;;;29.52;10.70;;;;;;;;;;6273424;22;20038;-85
2022/01/21 13:17:02;;;;;;;31.10;12.98;;;;;;;;;;6275042;22;19999;-83
2022/01/21 13:19:28;;;;;;;26.30;9.73;;;;;;;;;;6273417;22;20030;-84
2022/01/21 13:21:54;;;;;;;25.35;9.57;;;;;;;;;;6273555;22;20000;-81
2022/01/21 13:24:28;;;;;;;25.88;9.52;;;;;;;;;;6274895;22;20004;-82
2022/01/21 13:26:54;;;;;;;26.20;10.00;;;;;;;;;;6274263;22;20006;-83
2022/01/21 13:29:35;;;;;;;18.02;6.68;;;;;;;;;;6223636;22;20007;-83
2022/01/21 13:32:02;;;;;;;22.02;7.10;;;;;;;;;;6275256;22;20090;-83
2022/01/21 13:34:32;;;;;;;27.27;8.93;;;;;;;;;;6273839;22;20086;-84
2022/01/21 13:37:05;;;;;;;29.40;10.43;;;;;;;;;;6274858;22;20038;-83
2022/01/21 13:39:32;;;;;;;26.98;10.05;;;;;;;;;;6274868;22;20062;-84
2022/01/21 13:41:59;;;;;;;40.75;12.25;;;;;;;;;;6274844;22;20411;-84
2022/01/21 13:44:30;;;;;;;26.50;9.30;;;;;;;;;;6274946;22;20011;-84
2022/01/21 13:46:57;;;;;;;46.03;11.57;;;;;;;;;;6275320;22;20034;-83
2022/01/21 13:49:23;;;;;;;32.45;9.63;;;;;;;;;;6273476;22;20004;-84
2022/01/21 13:51:59;;;;;;;29.88;8.77;;;;;;;;;;6248046;22;20023;-84
2022/01/21 13:54:51;;;;;;;30.65;10.63;;;;;;;;;;6273819;22;20434;-84
2022/01/21 13:57:25;;;;;;;31.77;11.23;;;;;;;;;;6271862;22;20335;-83
2022/01/21 13:59:51;;;;;;;36.10;12.70;;;;;;;;;;6274096;22;20415;-84
2022/01/21 14:02:17;;;;;;;26.98;8.85;;;;;;;;;;6275476;22;20003;-83
2022/01/21 14:04:58;;;;;;;29.60;9.90;;;;;;;;;;6276890;22;20008;-82
2022/01/21 14:07:25;;;;;;;47.58;7.28;;;;;;;;;;6278056;22;20010;-83
2022/01/21 14:09:51;;;;;;;25.92;8.30;;;;;;;;;;6275885;22;20343;-84
2022/01/21 14:12:16;;;;;;;27.02;8.43;;;;;;;;;;6275611;22;20004;-85
2022/01/21 14:14:42;;;;;;;34.15;11.95;;;;;;;;;;6277047;22;20006;-84
2022/01/21 14:17:07;;;;;;;28.05;10.60;;;;;;;;;;6275579;22;20042;-84
2022/01/21 14:19:38;;;;;;;29.38;10.18;;;;;;;;;;6250242;22;20010;-84
2022/01/21 14:22:04;;;;;;;;;;;;;;;;;;6277895;22;20419;-83
2022/01/21 14:24:30;;;;;;;27.88;7.75;;;;;;;;;;6277122;22;19907;-84
2022/01/21 14:27:01;;;;;;;30.58;9.35;;;;;;;;;;6250167;22;20010;-84
2022/01/21 14:29:39;;;;;;;16.95;7.35;;;;;;;;;;6276167;22;20008;-84
2022/01/21 14:32:18;;;;;;;30.17;9.73;;;;;;;;;;6277962;22;20001;-84
2022/01/21 14:34:44;;;;;;;44.22;13.25;;;;;;;;;;6277340;22;20006;-84
2022/01/21 14:37:12;;;;;;;39.78;15.15;;;;;;;;;;6275277;22;19996;-84
2022/01/21 14:39:39;;;;;;;24.17;9.55;;;;;;;;;;6276775;22;20004;-84
2022/01/21 14:42:05;;;;;;;29.10;10.18;;;;;;;;;;6275027;22;19995;-83
2022/01/21 14:44:44;;;;;;;20.10;8.48;;;;;;;;;;6276910;22;20010;-84
2022/01/21 14:47:21;;;;;;;36.65;13.70;;;;;;;;;;6275146;22;20146;-84
2022/01/21 14:50:02;;;;;;;29.40;10.52;;;;;;;;;;6276698;22;20478;-83
2022/01/21 14:52:40;;;;;;;26.23;9.82;;;;;;;;;;6275196;22;19995;-84
2022/01/21 14:55:07;;;;;;;30.58;11.40;;;;;;;;;;6274819;22;20173;-83
2022/01/21 14:57:34;;;;;;;52.85;18.77;;;;;;;;;;6276739;22;19999;-83
2022/01/21 15:00:02;;;;;;;48.75;16.60;;;;;;;;;;6275223;22;20026;-83
2022/01/21 15:02:32;;;;;;;42.10;15.18;;;;;;;;;;6250265;22;20074;-83
2022/01/21 15:04:58;;;;;;;41.47;14.82;;;;;;;;;;6249820;22;20442;-83
2022/01/21 15:07:26;;;;;;;46.22;14.85;;;;;;;;;;6249174;22;20070;-82
2022/01/21 15:09:56;;;;;;;31.25;11.25;;;;;;;;;;6274707;22;20003;-84
2022/01/21 15:15:43;;;;;;;26.00;9.88;;;;;;;;;;6275929;22;20053;-84
2022/01/21 15:18:12;;;;;;;29.33;10.37;;;;;;;;;;6226331;22;20359;-83
2022/01/21 15:20:38;;;;;;;28.35;10.32;;;;;;;;;;6276830;22;19999;-83
2022/01/21 15:23:05;;;;;;;34.05;10.90;;;;;;;;;;6276560;22;20004;-83
2022/01/21 15:25:31;;;;;;;29.25;12.00;;;;;;;;;;6274620;22;20003;-83
2022/01/21 15:27:57;;;;;;;33.60;12.35;;;;;;;;;;6274677;22;20082;-82
2022/01/21 15:30:23;;;;;;;29.55;10.45;;;;;;;;;;6276510;22;20031;-82
2022/01/21 15:32:49;;;;;;;28.73;10.02;;;;;;;;;;6276344;22;20010;-82
2022/01/21 15:35:15;;;;;;;29.75;9.70;;;;;;;;;;6276059;22;20031;-82
2022/01/21 15:37:40;;;;;;;33.83;11.55;;;;;;;;;;6274570;22;20011;-83
2022/01/21 15:40:07;;;;;;;43.10;12.57;;;;;;;;;;6276052;22;20022;-83
2022/01/21 15:42:33;;;;;;;33.92;11.90;;;;;;;;;;6275938;22;20011;-82
2022/01/21 15:44:59;;;;;;;32.08;12.27;;;;;;;;;;6276219;22;20003;-83
2022/01/21 15:47:27;;;;;;;32.28;11.75;;;;;;;;;;6275875;22;20023;-81
2022/01/21 15:49:52;;;;;;;27.27;9.70;;;;;;;;;;6276129;22;20026;-82
2022/01/21 15:52:18;;;;;;;45.53;12.77;;;;;;;;;;6275765;22;20003;-83
2022/01/21 15:54:43;;;;;;;50.08;13.70;;;;;;;;;;6276010;22;19999;-82
2022/01/21 15:57:09;;;;;;;46.03;13.88;;;;;;;;;;6275878;22;20082;-83
2022/01/21 15:59:35;;;;;;;42.45;12.65;;;;;;;;;;6276568;22;20025;-82
2022/01/21 16:02:02;;;;;;;26.60;8.98;;;;;;;;;;6274171;22;20007;-82
2022/01/21 16:04:28;;;;;;;32.42;11.38;;;;;;;;;;6274166;22;20458;-82
2022/01/21 16:06:53;;;;;;;44.58;14.57;;;;;;;;;;6276040;22;20037;-83
2022/01/21 16:09:19;;;;;;;42.30;13.77;;;;;;;;;;6276954;22;20007;-82
2022/01/21 16:11:44;;;;;;;52.50;13.95;;;;;;;;;;6274406;22;20007;-82
2022/01/21 16:14:11;;;;;;;48.42;15.85;;;;;;;;;;6274391;22;20003;-82
2022/01/21 16:16:37;;;;;;;50.08;13.93;;;;;;;;;;6274228;22;20014;-82
2022/01/21 16:19:05;;;;;;;42.25;12.10;;;;;;;;;;6275395;22;20039;-81
2022/01/21 16:21:30;;;;;;;87.00;20.92;;;;;;;;;;6275576;22;20004;-81